createdAt,value
2022-08-19T04:28:27.185Z,23.16
2022-08-19T04:31:36.529Z,23.16
2022-08-19T04:35:02.372Z,22.72
2022-08-19T04:38:02.056Z,22.82
2022-08-19T04:41:23.322Z,22.99
2022-08-19T04:44:26.713Z,23.20
2022-08-19T04:47:46.968Z,23.23
2022-08-19T04:50:58.386Z,23.33
2022-08-19T04:54:02.966Z,23.46
2022-08-19T04:57:09.786Z,23.52
2022-08-19T05:00:13.709Z,23.45
2022-08-19T05:03:17.998Z,23.48
2022-08-19T05:06:22.600Z,23.59
2022-08-19T05:09:25.424Z,23.77
2022-08-19T05:12:29.899Z,23.85
2022-08-19T05:15:32.755Z,23.95
2022-08-19T05:18:53.961Z,24.14
2022-08-19T05:22:15.522Z,24.23
2022-08-19T05:25:20.883Z,24.42
2022-08-19T05:28:23.822Z,24.63
2022-08-19T05:31:26.431Z,24.79
2022-08-19T05:34:29.402Z,24.92
2022-08-19T05:37:32.017Z,25.23
2022-08-19T05:40:39.752Z,25.42
2022-08-19T05:43:42.286Z,25.71
2022-08-19T05:46:48.005Z,25.80
2022-08-19T05:49:53.669Z,26.15
2022-08-19T05:52:56.625Z,26.28
2022-08-19T05:55:59.315Z,26.17
2022-08-19T05:59:02.074Z,26.17
2022-08-19T06:02:06.317Z,26.35
2022-08-19T06:05:10.113Z,26.49
2022-08-19T06:08:12.677Z,26.78
2022-08-19T06:11:33.715Z,27.02
2022-08-19T06:14:40.144Z,27.12
2022-08-19T06:17:47.625Z,27.60
2022-08-19T06:20:55.807Z,27.98
2022-08-19T06:23:59.251Z,28.29
2022-08-19T06:27:02.056Z,28.34
2022-08-19T06:30:05.933Z,28.50
2022-08-19T06:33:08.455Z,28.71
2022-08-19T06:36:21.836Z,28.94
2022-08-19T06:39:34.207Z,28.93
2022-08-19T06:42:39.319Z,28.92
2022-08-19T06:45:45.790Z,29.04
2022-08-19T06:48:50.979Z,29.22
2022-08-19T06:51:53.502Z,29.49
2022-08-19T06:54:59.734Z,29.72
2022-08-19T06:58:04.748Z,30.35
2022-08-19T07:01:09.215Z,30.40
2022-08-19T07:04:12.088Z,30.48
2022-08-19T07:07:20.183Z,30.41
2022-08-19T07:10:24.342Z,30.10
2022-08-19T07:13:28.645Z,30.36
2022-08-19T07:16:31.246Z,30.96
2022-08-19T07:19:34.884Z,30.77
2022-08-19T07:22:38.979Z,30.49
2022-08-19T07:25:42.569Z,30.24
2022-08-19T07:28:46.027Z,30.34
2022-08-19T07:31:57.341Z,30.11
2022-08-19T07:35:01.557Z,30.75
2022-08-19T07:38:04.815Z,30.76
2022-08-19T07:41:09.652Z,31.20
2022-08-19T07:44:13.541Z,31.36
2022-08-19T07:47:49.072Z,31.77
2022-08-19T07:50:39.537Z,31.86
2022-08-19T07:53:44.294Z,32.31
2022-08-19T07:56:47.265Z,32.33
2022-08-19T07:59:49.895Z,32.30
2022-08-19T08:02:55.676Z,32.56
2022-08-19T08:06:17.647Z,32.88
2022-08-19T08:09:41.675Z,33.05
2022-08-19T08:12:45.405Z,33.94
2022-08-19T08:16:10.244Z,34.30
2022-08-19T08:19:25.712Z,34.19
2022-08-19T08:22:47.076Z,34.40
2022-08-19T08:25:50.739Z,34.05
2022-08-19T08:28:54.198Z,34.03
2022-08-19T08:31:59.773Z,34.27
2022-08-19T08:35:02.967Z,34.49
2022-08-19T08:38:05.941Z,34.64
2022-08-19T08:41:32.585Z,35.15
2022-08-19T08:44:48.659Z,35.35
2022-08-19T08:47:54.843Z,35.64
2022-08-19T08:50:59.954Z,35.97
2022-08-19T08:54:07.712Z,36.18
2022-08-19T08:57:18.831Z,36.92
2022-08-19T09:00:30.415Z,37.47
2022-08-19T09:03:33.210Z,37.33
2022-08-19T09:06:41.920Z,37.28
2022-08-19T09:09:49.586Z,37.15
2022-08-19T09:13:09.477Z,37.14
2022-08-19T09:21:30.544Z,37.23
2022-08-19T09:24:36.808Z,36.72
2022-08-19T09:27:53.902Z,36.81
2022-08-19T09:30:56.777Z,37.52
2022-08-19T09:34:00.764Z,38.07
2022-08-19T09:37:04.456Z,38.49
2022-08-19T09:40:08.159Z,38.08
2022-08-19T09:43:14.521Z,38.47
2022-08-19T09:46:20.458Z,37.56
2022-08-19T09:49:26.807Z,37.31
2022-08-19T09:52:32.751Z,37.95
2022-08-19T09:55:43.126Z,37.94
2022-08-19T09:58:46.144Z,38.37
2022-08-19T10:01:49.203Z,39.33
2022-08-19T10:05:11.559Z,39.11
2022-08-19T10:08:14.176Z,40.07
2022-08-19T10:11:28.480Z,40.38
2022-08-19T10:14:40.018Z,40.62
2022-08-19T10:17:54.991Z,39.44
2022-08-19T10:21:27.352Z,39.25
2022-08-19T10:24:30.504Z,39.79
2022-08-19T10:27:33.178Z,39.16
2022-08-19T10:30:40.487Z,39.34
2022-08-19T10:33:54.124Z,39.33
2022-08-19T10:37:01.200Z,39.79
2022-08-19T10:40:08.635Z,40.28
2022-08-19T10:43:12.231Z,40.83
2022-08-19T10:46:17.002Z,40.98
2022-08-19T10:49:20.278Z,42.10
2022-08-19T10:52:34.797Z,41.69
2022-08-19T10:56:00.477Z,41.66
2022-08-19T10:59:04.156Z,39.69
2022-08-19T11:02:10.874Z,39.53
2022-08-19T11:05:15.795Z,38.75
2022-08-19T11:08:22.604Z,38.71
2022-08-19T11:11:28.059Z,38.53
2022-08-19T11:26:00.632Z,39.20
2022-08-19T11:29:05.218Z,38.66
2022-08-19T11:32:10.608Z,37.94
2022-08-19T11:35:13.519Z,38.37
2022-08-19T11:38:19.472Z,38.35
2022-08-19T11:41:24.443Z,38.65
2022-08-19T11:44:27.029Z,37.94
2022-08-19T11:47:31.522Z,37.87
2022-08-19T11:50:34.147Z,38.06
2022-08-19T11:53:38.586Z,38.02
2022-08-19T11:56:41.803Z,38.53
2022-08-19T11:59:50.404Z,38.11
2022-08-19T12:02:53.027Z,38.23
2022-08-19T12:05:56.098Z,38.24
2022-08-19T12:09:09.637Z,37.85
2022-08-19T12:12:12.474Z,37.88
2022-08-19T12:15:15.306Z,38.71
2022-08-19T12:18:18.140Z,38.48
2022-08-19T12:21:23.895Z,37.92
2022-08-19T12:24:26.782Z,38.39
2022-08-19T12:27:32.149Z,38.64
2022-08-19T12:30:43.886Z,38.29
2022-08-19T12:33:47.612Z,38.01
2022-08-19T12:36:50.829Z,37.82
2022-08-19T12:39:53.849Z,38.01
2022-08-19T12:42:56.699Z,38.27
2022-08-19T12:45:59.498Z,38.32
2022-08-19T12:49:05.159Z,37.65
2022-08-19T12:52:29.193Z,37.69
2022-08-19T12:55:32.394Z,37.36
2022-08-19T12:58:35.524Z,36.77
2022-08-19T13:01:39.046Z,37.00
2022-08-19T13:04:42.107Z,37.21
2022-08-19T13:07:45.242Z,37.32
2022-08-19T13:10:47.789Z,37.71
2022-08-19T13:13:52.569Z,37.69
2022-08-19T13:16:55.143Z,37.77
2022-08-19T13:19:58.120Z,37.66
2022-08-19T13:23:00.769Z,37.43
2022-08-19T13:26:06.116Z,37.42
2022-08-19T13:29:27.073Z,37.41
2022-08-19T13:32:49.088Z,37.22
2022-08-19T13:35:59.610Z,37.21
2022-08-19T13:39:02.406Z,37.01
2022-08-19T13:42:06.606Z,36.52
2022-08-19T13:45:10.691Z,36.46
2022-08-19T13:48:13.284Z,37.00
2022-08-19T13:51:17.783Z,37.00
2022-08-19T13:54:20.321Z,36.61
2022-08-19T13:57:23.502Z,36.70
2022-08-19T14:00:28.112Z,37.14
2022-08-19T14:03:32.732Z,37.36
2022-08-19T14:06:35.357Z,37.59
2022-08-19T14:09:38.269Z,37.70
2022-08-19T14:12:41.344Z,37.59
2022-08-19T14:15:44.378Z,37.04
2022-08-19T14:18:47.103Z,35.64
2022-08-19T14:21:49.930Z,35.47
2022-08-19T14:24:52.481Z,34.89
2022-08-19T14:27:56.896Z,33.69
2022-08-19T14:31:02.377Z,33.94
2022-08-19T14:34:06.168Z,33.53
2022-08-19T14:37:10.415Z,33.39
2022-08-19T14:40:22.810Z,32.93
2022-08-19T14:43:25.519Z,33.04
2022-08-19T14:46:29.726Z,32.72
2022-08-19T14:49:35.291Z,31.94
2022-08-19T14:52:48.804Z,32.09
2022-08-19T14:55:51.492Z,32.29
2022-08-19T14:59:00.300Z,31.65
